sensor_id;sensor_type;location;lat;lon;timestamp;temperature;humidity
5796;DHT22;2924;51.458;7.046;2022-09-17T00:00:58;9.50;99.90
5796;DHT22;2924;51.458;7.046;2022-09-17T00:03:25;9.50;99.90
5796;DHT22;2924;51.458;7.046;2022-09-17T00:05:58;9.50;99.90
5796;DHT22;2924;51.458;7.046;2022-09-17T00:08:25;9.40;99.90
5796;DHT22;2924;51.458;7.046;2022-09-17T00:10:50;9.40;99.90
5796;DHT22;2924;51.458;7.046;2022-09-17T00:13:16;9.40;99.90
5796;DHT22;2924;51.458;7.046;2022-09-17T00:15:43;9.40;99.90
5796;DHT22;2924;51.458;7.046;2022-09-17T00:18:10;9.40;99.90
5796;DHT22;2924;51.458;7.046;2022-09-17T00:20:40;9.40;99.90
5796;DHT22;2924;51.458;7.046;2022-09-17T00:23:07;9.40;99.90
5796;DHT22;2924;51.458;7.046;2022-09-17T00:25:33;9.40;99.90
5796;DHT22;2924;51.458;7.046;2022-09-17T00:27:59;9.40;99.90
5796;DHT22;2924;51.458;7.046;2022-09-17T00:30:25;9.40;99.90
5796;DHT22;2924;51.458;7.046;2022-09-17T00:32:50;9.40;99.90
5796;DHT22;2924;51.458;7.046;2022-09-17T00:35:18;9.40;99.90
5796;DHT22;2924;51.458;7.046;2022-09-17T00:37:43;9.30;99.90
5796;DHT22;2924;51.458;7.046;2022-09-17T00:40:09;9.30;99.90
5796;DHT22;2924;51.458;7.046;2022-09-17T00:42:35;9.30;99.90
5796;DHT22;2924;51.458;7.046;2022-09-17T00:45:00;9.30;99.90
5796;DHT22;2924;51.458;7.046;2022-09-17T00:47:35;9.30;99.90
5796;DHT22;2924;51.458;7.046;2022-09-17T00:50:16;9.30;99.90
5796;DHT22;2924;51.458;7.046;2022-09-17T00:52:49;9.30;99.90
5796;DHT22;2924;51.458;7.046;2022-09-17T00:55:23;9.40;99.90
5796;DHT22;2924;51.458;7.046;2022-09-17T00:57:52;9.40;99.90
5796;DHT22;2924;51.458;7.046;2022-09-17T01:00:19;9.40;99.90
5796;DHT22;2924;51.458;7.046;2022-09-17T01:02:45;9.40;99.90
5796;DHT22;2924;51.458;7.046;2022-09-17T01:05:11;9.40;99.90
5796;DHT22;2924;51.458;7.046;2022-09-17T01:15:58;9.30;99.90
5796;DHT22;2924;51.458;7.046;2022-09-17T01:24:29;9.20;99.90
5796;DHT22;2924;51.458;7.046;2022-09-17T01:29:58;9.00;99.90
5796;DHT22;2924;51.458;7.046;2022-09-17T01:38:18;8.90;99.90
5796;DHT22;2924;51.458;7.046;2022-09-17T01:44:34;8.80;99.90
5796;DHT22;2924;51.458;7.046;2022-09-17T01:50:32;8.80;99.90
5796;DHT22;2924;51.458;7.046;2022-09-17T01:53:03;8.80;99.90
5796;DHT22;2924;51.458;7.046;2022-09-17T01:55:34;8.90;99.90
5796;DHT22;2924;51.458;7.046;2022-09-17T01:58:02;9.00;99.90
5796;DHT22;2924;51.458;7.046;2022-09-17T02:00:30;9.10;99.90
5796;DHT22;2924;51.458;7.046;2022-09-17T02:03:01;9.10;99.90
5796;DHT22;2924;51.458;7.046;2022-09-17T02:05:34;9.20;99.90
5796;DHT22;2924;51.458;7.046;2022-09-17T02:08:09;9.20;99.90
5796;DHT22;2924;51.458;7.046;2022-09-17T02:10:41;9.20;99.90
5796;DHT22;2924;51.458;7.046;2022-09-17T02:13:16;9.30;99.90
5796;DHT22;2924;51.458;7.046;2022-09-17T02:15:48;9.30;99.90
5796;DHT22;2924;51.458;7.046;2022-09-17T02:18:26;9.40;99.90
5796;DHT22;2924;51.458;7.046;2022-09-17T02:21:01;9.30;99.90
5796;DHT22;2924;51.458;7.046;2022-09-17T02:23:34;9.30;99.90
5796;DHT22;2924;51.458;7.046;2022-09-17T02:26:14;9.30;99.90
5796;DHT22;2924;51.458;7.046;2022-09-17T02:28:54;9.30;99.90
5796;DHT22;2924;51.458;7.046;2022-09-17T02:31:21;9.30;99.90
5796;DHT22;2924;51.458;7.046;2022-09-17T02:33:52;9.30;99.90
5796;DHT22;2924;51.458;7.046;2022-09-17T02:36:18;9.20;99.90
5796;DHT22;2924;51.458;7.046;2022-09-17T02:38:45;9.10;99.90
5796;DHT22;2924;51.458;7.046;2022-09-17T02:41:22;9.20;99.90
5796;DHT22;2924;51.458;7.046;2022-09-17T02:58:21;9.10;99.90
5796;DHT22;2924;51.458;7.046;2022-09-17T03:00:49;9.10;99.90
5796;DHT22;2924;51.458;7.046;2022-09-17T03:03:35;9.00;99.90
5796;DHT22;2924;51.458;7.046;2022-09-17T03:06:03;9.00;99.90
5796;DHT22;2924;51.458;7.046;2022-09-17T03:08:32;8.90;99.90
5796;DHT22;2924;51.458;7.046;2022-09-17T03:10:58;8.90;99.90
5796;DHT22;2924;51.458;7.046;2022-09-17T03:13:24;8.90;99.90
5796;DHT22;2924;51.458;7.046;2022-09-17T03:15:50;8.90;99.90
5796;DHT22;2924;51.458;7.046;2022-09-17T03:18:15;9.00;99.90
5796;DHT22;2924;51.458;7.046;2022-09-17T03:20:41;9.00;99.90
5796;DHT22;2924;51.458;7.046;2022-09-17T03:23:07;9.10;99.90
5796;DHT22;2924;51.458;7.046;2022-09-17T03:25:32;9.00;99.90
5796;DHT22;2924;51.458;7.046;2022-09-17T03:27:58;9.00;99.90
5796;DHT22;2924;51.458;7.046;2022-09-17T03:30:24;9.10;99.90
5796;DHT22;2924;51.458;7.046;2022-09-17T03:32:49;9.10;99.90
5796;DHT22;2924;51.458;7.046;2022-09-17T03:35:15;9.10;99.90
5796;DHT22;2924;51.458;7.046;2022-09-17T03:37:40;9.10;99.90
5796;DHT22;2924;51.458;7.046;2022-09-17T03:40:07;9.10;99.90
5796;DHT22;2924;51.458;7.046;2022-09-17T03:42:34;9.20;99.90
5796;DHT22;2924;51.458;7.046;2022-09-17T03:44:59;9.20;99.90
5796;DHT22;2924;51.458;7.046;2022-09-17T03:47:25;9.20;99.90
5796;DHT22;2924;51.458;7.046;2022-09-17T03:49:50;9.20;99.90
5796;DHT22;2924;51.458;7.046;2022-09-17T03:52:17;9.20;99.90
5796;DHT22;2924;51.458;7.046;2022-09-17T03:54:43;9.30;99.90
5796;DHT22;2924;51.458;7.046;2022-09-17T03:57:08;9.30;99.90
5796;DHT22;2924;51.458;7.046;2022-09-17T03:59:34;9.20;99.90
5796;DHT22;2924;51.458;7.046;2022-09-17T04:01:59;9.30;99.90
5796;DHT22;2924;51.458;7.046;2022-09-17T04:04:25;9.30;99.90
5796;DHT22;2924;51.458;7.046;2022-09-17T04:06:51;9.30;99.90
5796;DHT22;2924;51.458;7.046;2022-09-17T04:09:16;9.30;99.90
5796;DHT22;2924;51.458;7.046;2022-09-17T04:11:42;9.30;99.90
5796;DHT22;2924;51.458;7.046;2022-09-17T04:14:08;9.20;99.90
5796;DHT22;2924;51.458;7.046;2022-09-17T04:16:34;9.20;99.90
5796;DHT22;2924;51.458;7.046;2022-09-17T04:18:59;9.20;99.90
5796;DHT22;2924;51.458;7.046;2022-09-17T04:21:25;9.10;99.90
5796;DHT22;2924;51.458;7.046;2022-09-17T04:23:51;9.10;99.90
5796;DHT22;2924;51.458;7.046;2022-09-17T04:26:16;9.00;99.90
5796;DHT22;2924;51.458;7.046;2022-09-17T04:28:42;9.10;99.90
5796;DHT22;2924;51.458;7.046;2022-09-17T04:31:07;9.20;99.90
5796;DHT22;2924;51.458;7.046;2022-09-17T04:33:33;9.20;99.90
5796;DHT22;2924;51.458;7.046;2022-09-17T04:35:59;9.30;99.90
5796;DHT22;2924;51.458;7.046;2022-09-17T04:38:24;9.30;99.90
5796;DHT22;2924;51.458;7.046;2022-09-17T04:40:50;9.40;99.90
5796;DHT22;2924;51.458;7.046;2022-09-17T04:43:16;9.40;99.90
5796;DHT22;2924;51.458;7.046;2022-09-17T04:45:45;9.40;99.90
5796;DHT22;2924;51.458;7.046;2022-09-17T04:48:11;9.50;99.90
5796;DHT22;2924;51.458;7.046;2022-09-17T04:50:37;9.50;99.90
5796;DHT22;2924;51.458;7.046;2022-09-17T04:53:03;9.50;99.90
5796;DHT22;2924;51.458;7.046;2022-09-17T04:55:29;9.50;99.90
5796;DHT22;2924;51.458;7.046;2022-09-17T04:57:56;9.60;99.90
5796;DHT22;2924;51.458;7.046;2022-09-17T05:00:22;9.50;99.90
5796;DHT22;2924;51.458;7.046;2022-09-17T05:02:50;9.50;99.90
5796;DHT22;2924;51.458;7.046;2022-09-17T05:05:17;9.60;99.90
5796;DHT22;2924;51.458;7.046;2022-09-17T05:07:43;9.60;99.90
5796;DHT22;2924;51.458;7.046;2022-09-17T05:10:10;9.50;99.90
5796;DHT22;2924;51.458;7.046;2022-09-17T05:12:36;9.50;99.90
5796;DHT22;2924;51.458;7.046;2022-09-17T05:15:02;9.40;99.90
5796;DHT22;2924;51.458;7.046;2022-09-17T05:17:28;9.30;99.90
5796;DHT22;2924;51.458;7.046;2022-09-17T05:19:54;9.30;99.90
5796;DHT22;2924;51.458;7.046;2022-09-17T05:22:19;9.30;99.90
5796;DHT22;2924;51.458;7.046;2022-09-17T05:24:45;9.30;99.90
5796;DHT22;2924;51.458;7.046;2022-09-17T05:27:11;9.40;99.90
5796;DHT22;2924;51.458;7.046;2022-09-17T05:29:37;9.40;99.90
5796;DHT22;2924;51.458;7.046;2022-09-17T05:32:03;9.50;99.90
5796;DHT22;2924;51.458;7.046;2022-09-17T05:34:29;9.50;99.90
5796;DHT22;2924;51.458;7.046;2022-09-17T05:36:55;9.60;99.90
5796;DHT22;2924;51.458;7.046;2022-09-17T05:39:20;9.70;99.90
5796;DHT22;2924;51.458;7.046;2022-09-17T05:41:50;9.80;99.90
5796;DHT22;2924;51.458;7.046;2022-09-17T05:44:16;9.80;99.90
5796;DHT22;2924;51.458;7.046;2022-09-17T05:46:43;9.90;99.90
5796;DHT22;2924;51.458;7.046;2022-09-17T05:49:08;10.00;99.90
5796;DHT22;2924;51.458;7.046;2022-09-17T05:51:34;10.10;99.90
5796;DHT22;2924;51.458;7.046;2022-09-17T05:53:59;10.10;99.90
5796;DHT22;2924;51.458;7.046;2022-09-17T05:56:25;10.20;99.90
5796;DHT22;2924;51.458;7.046;2022-09-17T05:58:54;10.20;99.90
5796;DHT22;2924;51.458;7.046;2022-09-17T06:01:21;10.20;99.90
5796;DHT22;2924;51.458;7.046;2022-09-17T06:03:47;10.30;99.90
5796;DHT22;2924;51.458;7.046;2022-09-17T06:06:12;10.30;99.90
5796;DHT22;2924;51.458;7.046;2022-09-17T06:08:38;10.30;99.90
5796;DHT22;2924;51.458;7.046;2022-09-17T06:11:08;10.20;99.90
5796;DHT22;2924;51.458;7.046;2022-09-17T06:13:34;10.30;99.90
5796;DHT22;2924;51.458;7.046;2022-09-17T06:16:01;10.20;99.90
5796;DHT22;2924;51.458;7.046;2022-09-17T06:18:28;10.20;99.90
5796;DHT22;2924;51.458;7.046;2022-09-17T06:20:59;10.20;99.90
5796;DHT22;2924;51.458;7.046;2022-09-17T06:23:25;10.30;99.90
5796;DHT22;2924;51.458;7.046;2022-09-17T06:25:56;10.30;99.90
5796;DHT22;2924;51.458;7.046;2022-09-17T06:28:22;10.30;99.90
5796;DHT22;2924;51.458;7.046;2022-09-17T06:30:47;10.30;99.90
5796;DHT22;2924;51.458;7.046;2022-09-17T06:33:14;10.20;99.90
5796;DHT22;2924;51.458;7.046;2022-09-17T06:35:40;10.20;99.90
5796;DHT22;2924;51.458;7.046;2022-09-17T06:38:06;10.20;99.90
5796;DHT22;2924;51.458;7.046;2022-09-17T06:40:32;10.10;99.90
5796;DHT22;2924;51.458;7.046;2022-09-17T06:42:58;10.10;99.90
5796;DHT22;2924;51.458;7.046;2022-09-17T06:45:25;10.10;99.90
5796;DHT22;2924;51.458;7.046;2022-09-17T06:47:51;10.10;99.90
5796;DHT22;2924;51.458;7.046;2022-09-17T06:50:17;10.20;99.90
5796;DHT22;2924;51.458;7.046;2022-09-17T06:52:50;10.20;99.90
5796;DHT22;2924;51.458;7.046;2022-09-17T06:55:16;10.10;99.90
5796;DHT22;2924;51.458;7.046;2022-09-17T06:57:42;10.10;99.90
5796;DHT22;2924;51.458;7.046;2022-09-17T07:00:09;10.10;99.90
5796;DHT22;2924;51.458;7.046;2022-09-17T07:02:35;10.10;99.90
5796;DHT22;2924;51.458;7.046;2022-09-17T07:05:01;10.10;99.90
5796;DHT22;2924;51.458;7.046;2022-09-17T07:07:27;10.20;99.90
5796;DHT22;2924;51.458;7.046;2022-09-17T07:09:53;10.30;99.90
5796;DHT22;2924;51.458;7.046;2022-09-17T07:12:19;10.50;99.90
5796;DHT22;2924;51.458;7.046;2022-09-17T07:14:45;10.90;99.90
5796;DHT22;2924;51.458;7.046;2022-09-17T07:17:14;11.40;99.90
5796;DHT22;2924;51.458;7.046;2022-09-17T07:19:40;11.80;99.90
5796;DHT22;2924;51.458;7.046;2022-09-17T07:22:05;12.20;99.90
5796;DHT22;2924;51.458;7.046;2022-09-17T07:24:32;13.10;99.90
5796;DHT22;2924;51.458;7.046;2022-09-17T07:26:57;14.00;99.90
5796;DHT22;2924;51.458;7.046;2022-09-17T07:29:23;14.70;99.90
5796;DHT22;2924;51.458;7.046;2022-09-17T07:31:55;15.00;99.90
5796;DHT22;2924;51.458;7.046;2022-09-17T07:34:21;15.20;99.90
5796;DHT22;2924;51.458;7.046;2022-09-17T07:36:46;15.60;99.90
5796;DHT22;2924;51.458;7.046;2022-09-17T07:39:12;16.30;99.90
5796;DHT22;2924;51.458;7.046;2022-09-17T07:41:39;16.60;99.90
5796;DHT22;2924;51.458;7.046;2022-09-17T07:44:04;16.40;99.90
5796;DHT22;2924;51.458;7.046;2022-09-17T07:46:34;15.90;99.90
5796;DHT22;2924;51.458;7.046;2022-09-17T07:49:00;15.60;99.90
5796;DHT22;2924;51.458;7.046;2022-09-17T07:51:26;15.50;99.90
5796;DHT22;2924;51.458;7.046;2022-09-17T07:53:56;15.70;99.90
5796;DHT22;2924;51.458;7.046;2022-09-17T07:56:24;16.40;99.90
5796;DHT22;2924;51.458;7.046;2022-09-17T07:58:51;16.80;99.90
5796;DHT22;2924;51.458;7.046;2022-09-17T08:01:17;17.20;99.90
5796;DHT22;2924;51.458;7.046;2022-09-17T08:03:47;17.40;99.90
5796;DHT22;2924;51.458;7.046;2022-09-17T08:06:16;17.50;99.90
5796;DHT22;2924;51.458;7.046;2022-09-17T08:08:42;17.40;99.90
5796;DHT22;2924;51.458;7.046;2022-09-17T08:11:10;17.60;99.90
5796;DHT22;2924;51.458;7.046;2022-09-17T08:13:36;17.90;99.90
5796;DHT22;2924;51.458;7.046;2022-09-17T08:16:09;18.00;99.90
5796;DHT22;2924;51.458;7.046;2022-09-17T08:18:35;18.00;99.90
5796;DHT22;2924;51.458;7.046;2022-09-17T08:21:03;17.70;99.90
5796;DHT22;2924;51.458;7.046;2022-09-17T08:23:30;17.80;99.90
5796;DHT22;2924;51.458;7.046;2022-09-17T08:25:58;18.20;99.90
5796;DHT22;2924;51.458;7.046;2022-09-17T08:28:25;18.70;99.90
5796;DHT22;2924;51.458;7.046;2022-09-17T08:30:51;19.10;99.90
5796;DHT22;2924;51.458;7.046;2022-09-17T08:33:18;19.20;99.80
5796;DHT22;2924;51.458;7.046;2022-09-17T08:35:54;19.30;99.60
5796;DHT22;2924;51.458;7.046;2022-09-17T08:38:20;19.60;98.30
5796;DHT22;2924;51.458;7.046;2022-09-17T08:46:20;18.10;99.90
5796;DHT22;2924;51.458;7.046;2022-09-17T08:54:42;17.90;99.90
5796;DHT22;2924;51.458;7.046;2022-09-17T08:59:46;19.40;99.50
5796;DHT22;2924;51.458;7.046;2022-09-17T09:07:30;21.00;96.30
5796;DHT22;2924;51.458;7.046;2022-09-17T09:12:32;20.50;95.30
5796;DHT22;2924;51.458;7.046;2022-09-17T09:15:22;20.80;95.30
5796;DHT22;2924;51.458;7.046;2022-09-17T09:17:51;21.30;95.00
5796;DHT22;2924;51.458;7.046;2022-09-17T09:22:51;21.50;93.80
5796;DHT22;2924;51.458;7.046;2022-09-17T09:27:55;20.00;93.80
5796;DHT22;2924;51.458;7.046;2022-09-17T09:30:28;19.90;94.00
5796;DHT22;2924;51.458;7.046;2022-09-17T09:32:59;20.10;94.00
5796;DHT22;2924;51.458;7.046;2022-09-17T09:35:30;19.80;94.00
5796;DHT22;2924;51.458;7.046;2022-09-17T09:40:51;19.60;95.30
5796;DHT22;2924;51.458;7.046;2022-09-17T09:43:27;19.60;94.30
5796;DHT22;2924;51.458;7.046;2022-09-17T09:57:13;20.60;93.50
5796;DHT22;2924;51.458;7.046;2022-09-17T09:59:39;20.40;93.00
5796;DHT22;2924;51.458;7.046;2022-09-17T10:02:08;20.20;93.10
5796;DHT22;2924;51.458;7.046;2022-09-17T10:04:34;19.60;94.10
5796;DHT22;2924;51.458;7.046;2022-09-17T10:07:05;18.80;94.70
5796;DHT22;2924;51.458;7.046;2022-09-17T10:09:37;17.90;95.90
5796;DHT22;2924;51.458;7.046;2022-09-17T10:14:39;17.30;98.30
5796;DHT22;2924;51.458;7.046;2022-09-17T10:17:22;17.20;98.80
5796;DHT22;2924;51.458;7.046;2022-09-17T10:22:43;17.90;98.30
5796;DHT22;2924;51.458;7.046;2022-09-17T10:25:40;18.60;97.30
5796;DHT22;2924;51.458;7.046;2022-09-17T10:30:59;20.10;95.00
5796;DHT22;2924;51.458;7.046;2022-09-17T10:33:30;20.40;94.20
5796;DHT22;2924;51.458;7.046;2022-09-17T10:36:04;20.90;93.90
5796;DHT22;2924;51.458;7.046;2022-09-17T10:38:39;21.30;92.60
5796;DHT22;2924;51.458;7.046;2022-09-17T10:41:15;21.70;92.70
5796;DHT22;2924;51.458;7.046;2022-09-17T10:43:42;22.00;91.60
5796;DHT22;2924;51.458;7.046;2022-09-17T10:46:13;21.60;91.30
5796;DHT22;2924;51.458;7.046;2022-09-17T10:48:56;20.70;93.20
5796;DHT22;2924;51.458;7.046;2022-09-17T10:51:24;19.20;99.00
5796;DHT22;2924;51.458;7.046;2022-09-17T10:56:56;16.30;99.90
5796;DHT22;2924;51.458;7.046;2022-09-17T10:59:45;15.20;99.90
5796;DHT22;2924;51.458;7.046;2022-09-17T11:10:42;12.60;99.90
5796;DHT22;2924;51.458;7.046;2022-09-17T11:16:13;11.40;99.90
5796;DHT22;2924;51.458;7.046;2022-09-17T11:18:44;10.90;99.90
5796;DHT22;2924;51.458;7.046;2022-09-17T11:26:40;10.10;99.90
5796;DHT22;2924;51.458;7.046;2022-09-17T11:35:18;10.40;99.90
5796;DHT22;2924;51.458;7.046;2022-09-17T11:40:58;11.30;99.90
5796;DHT22;2924;51.458;7.046;2022-09-17T11:43:41;11.50;99.90
5796;DHT22;2924;51.458;7.046;2022-09-17T11:46:23;11.80;99.90
5796;DHT22;2924;51.458;7.046;2022-09-17T11:49:05;11.90;99.90
5796;DHT22;2924;51.458;7.046;2022-09-17T11:51:51;11.60;99.90
5796;DHT22;2924;51.458;7.046;2022-09-17T11:54:31;11.30;99.90
5796;DHT22;2924;51.458;7.046;2022-09-17T11:57:24;11.10;99.90
5796;DHT22;2924;51.458;7.046;2022-09-17T12:00:11;10.80;99.90
5796;DHT22;2924;51.458;7.046;2022-09-17T12:03:17;10.90;99.90
5796;DHT22;2924;51.458;7.046;2022-09-17T12:05:57;11.70;99.90
5796;DHT22;2924;51.458;7.046;2022-09-17T12:09:14;12.50;99.90
5796;DHT22;2924;51.458;7.046;2022-09-17T12:17:15;14.50;99.90
5796;DHT22;2924;51.458;7.046;2022-09-17T12:19:45;14.90;99.90
5796;DHT22;2924;51.458;7.046;2022-09-17T12:22:33;15.20;99.90
5796;DHT22;2924;51.458;7.046;2022-09-17T12:25:00;15.40;99.90
5796;DHT22;2924;51.458;7.046;2022-09-17T12:30:09;15.30;99.90
5796;DHT22;2924;51.458;7.046;2022-09-17T12:35:20;14.60;99.90
5796;DHT22;2924;51.458;7.046;2022-09-17T12:51:46;15.10;99.90
5796;DHT22;2924;51.458;7.046;2022-09-17T13:00:36;16.70;99.90
5796;DHT22;2924;51.458;7.046;2022-09-17T13:03:15;17.00;99.90
5796;DHT22;2924;51.458;7.046;2022-09-17T13:06:04;17.20;99.90
5796;DHT22;2924;51.458;7.046;2022-09-17T13:08:58;17.30;99.90
5796;DHT22;2924;51.458;7.046;2022-09-17T13:16:59;17.40;99.90
5796;DHT22;2924;51.458;7.046;2022-09-17T13:19:43;17.40;99.90
5796;DHT22;2924;51.458;7.046;2022-09-17T13:22:31;17.60;99.90
5796;DHT22;2924;51.458;7.046;2022-09-17T13:25:09;17.70;99.90
5796;DHT22;2924;51.458;7.046;2022-09-17T13:27:37;18.00;99.90
5796;DHT22;2924;51.458;7.046;2022-09-17T13:30:05;18.40;99.90
5796;DHT22;2924;51.458;7.046;2022-09-17T13:37:35;19.10;99.90
5796;DHT22;2924;51.458;7.046;2022-09-17T13:40:04;19.30;99.90
5796;DHT22;2924;51.458;7.046;2022-09-17T13:42:42;19.20;99.90
5796;DHT22;2924;51.458;7.046;2022-09-17T13:45:09;18.80;99.90
5796;DHT22;2924;51.458;7.046;2022-09-17T13:50:34;16.70;99.90
5796;DHT22;2924;51.458;7.046;2022-09-17T14:00:56;11.50;99.90
5796;DHT22;2924;51.458;7.046;2022-09-17T14:08:46;11.20;99.90
5796;DHT22;2924;51.458;7.046;2022-09-17T14:14:46;11.20;99.90
5796;DHT22;2924;51.458;7.046;2022-09-17T14:16:45;11.40;99.90
5796;DHT22;2924;51.458;7.046;2022-09-17T14:21:54;12.40;99.90
5796;DHT22;2924;51.458;7.046;2022-09-17T14:30:04;14.00;99.90
5796;DHT22;2924;51.458;7.046;2022-09-17T14:35:37;14.60;99.90
5796;DHT22;2924;51.458;7.046;2022-09-17T14:41:04;14.50;99.90
5796;DHT22;2924;51.458;7.046;2022-09-17T14:45:59;14.60;99.90
5796;DHT22;2924;51.458;7.046;2022-09-17T14:48:32;14.70;99.90
5796;DHT22;2924;51.458;7.046;2022-09-17T14:53:46;14.50;99.90
5796;DHT22;2924;51.458;7.046;2022-09-17T14:56:18;14.60;99.90
5796;DHT22;2924;51.458;7.046;2022-09-17T14:58:51;14.70;99.90
5796;DHT22;2924;51.458;7.046;2022-09-17T15:01:29;15.00;99.90
5796;DHT22;2924;51.458;7.046;2022-09-17T15:06:42;15.40;99.90
5796;DHT22;2924;51.458;7.046;2022-09-17T15:09:22;15.50;99.90
5796;DHT22;2924;51.458;7.046;2022-09-17T15:11:51;15.50;99.90
5796;DHT22;2924;51.458;7.046;2022-09-17T15:14:37;15.60;99.90
5796;DHT22;2924;51.458;7.046;2022-09-17T15:17:05;15.60;99.90
5796;DHT22;2924;51.458;7.046;2022-09-17T15:19:37;15.50;99.90
5796;DHT22;2924;51.458;7.046;2022-09-17T15:24:45;15.90;99.90
5796;DHT22;2924;51.458;7.046;2022-09-17T15:30:20;16.30;99.90
5796;DHT22;2924;51.458;7.046;2022-09-17T15:32:54;16.60;99.90
5796;DHT22;2924;51.458;7.046;2022-09-17T15:35:25;17.00;99.90
5796;DHT22;2924;51.458;7.046;2022-09-17T15:38:25;16.90;99.90
5796;DHT22;2924;51.458;7.046;2022-09-17T15:40:47;16.70;99.90
5796;DHT22;2924;51.458;7.046;2022-09-17T15:43:34;16.10;99.90
5796;DHT22;2924;51.458;7.046;2022-09-17T15:46:22;14.80;99.90
5796;DHT22;2924;51.458;7.046;2022-09-17T15:49:01;12.90;99.90
5796;DHT22;2924;51.458;7.046;2022-09-17T15:51:30;11.70;99.90
5796;DHT22;2924;51.458;7.046;2022-09-17T15:54:03;11.10;99.90
5796;DHT22;2924;51.458;7.046;2022-09-17T15:56:38;10.80;99.90
5796;DHT22;2924;51.458;7.046;2022-09-17T16:01:50;10.50;99.90
5796;DHT22;2924;51.458;7.046;2022-09-17T16:04:20;10.30;99.90
5796;DHT22;2924;51.458;7.046;2022-09-17T16:06:57;10.10;99.90
5796;DHT22;2924;51.458;7.046;2022-09-17T16:12:19;9.80;99.90
5796;DHT22;2924;51.458;7.046;2022-09-17T16:14:57;9.80;99.90
5796;DHT22;2924;51.458;7.046;2022-09-17T16:17:31;9.90;99.90
5796;DHT22;2924;51.458;7.046;2022-09-17T16:19:59;9.90;99.90
5796;DHT22;2924;51.458;7.046;2022-09-17T16:22:25;10.00;99.90
5796;DHT22;2924;51.458;7.046;2022-09-17T16:24:53;10.00;99.90
5796;DHT22;2924;51.458;7.046;2022-09-17T16:27:24;10.00;99.90
5796;DHT22;2924;51.458;7.046;2022-09-17T16:29:51;9.90;99.90
5796;DHT22;2924;51.458;7.046;2022-09-17T16:32:19;9.90;99.90
5796;DHT22;2924;51.458;7.046;2022-09-17T16:34:45;9.90;99.90
5796;DHT22;2924;51.458;7.046;2022-09-17T16:37:11;10.00;99.90
5796;DHT22;2924;51.458;7.046;2022-09-17T16:39:36;10.00;99.90
5796;DHT22;2924;51.458;7.046;2022-09-17T16:42:02;10.10;99.90
5796;DHT22;2924;51.458;7.046;2022-09-17T16:44:28;10.10;99.90
5796;DHT22;2924;51.458;7.046;2022-09-17T16:46:53;10.20;99.90
5796;DHT22;2924;51.458;7.046;2022-09-17T16:49:19;10.30;99.90
5796;DHT22;2924;51.458;7.046;2022-09-17T16:51:45;10.30;99.90
5796;DHT22;2924;51.458;7.046;2022-09-17T16:54:10;10.40;99.90
5796;DHT22;2924;51.458;7.046;2022-09-17T16:56:36;10.40;99.90
5796;DHT22;2924;51.458;7.046;2022-09-17T16:59:01;10.50;99.90
5796;DHT22;2924;51.458;7.046;2022-09-17T17:01:27;10.60;99.90
5796;DHT22;2924;51.458;7.046;2022-09-17T17:03:53;10.60;99.90
5796;DHT22;2924;51.458;7.046;2022-09-17T17:06:20;10.70;99.90
5796;DHT22;2924;51.458;7.046;2022-09-17T17:08:47;10.60;99.90
5796;DHT22;2924;51.458;7.046;2022-09-17T17:11:13;10.60;99.90
5796;DHT22;2924;51.458;7.046;2022-09-17T17:13:41;10.60;99.90
5796;DHT22;2924;51.458;7.046;2022-09-17T17:16:08;10.50;99.90
5796;DHT22;2924;51.458;7.046;2022-09-17T17:18:35;10.30;99.90
5796;DHT22;2924;51.458;7.046;2022-09-17T17:21:04;10.10;99.90
5796;DHT22;2924;51.458;7.046;2022-09-17T17:23:30;10.00;99.90
5796;DHT22;2924;51.458;7.046;2022-09-17T17:25:56;9.90;99.90
5796;DHT22;2924;51.458;7.046;2022-09-17T17:28:22;9.90;99.90
5796;DHT22;2924;51.458;7.046;2022-09-17T17:30:48;9.80;99.90
5796;DHT22;2924;51.458;7.046;2022-09-17T17:33:14;9.70;99.90
5796;DHT22;2924;51.458;7.046;2022-09-17T17:35:40;9.60;99.90
5796;DHT22;2924;51.458;7.046;2022-09-17T17:38:05;9.40;99.90
5796;DHT22;2924;51.458;7.046;2022-09-17T17:40:31;9.40;99.90
5796;DHT22;2924;51.458;7.046;2022-09-17T17:42:57;9.30;99.90
5796;DHT22;2924;51.458;7.046;2022-09-17T17:45:22;9.20;99.90
5796;DHT22;2924;51.458;7.046;2022-09-17T17:47:48;9.10;99.90
5796;DHT22;2924;51.458;7.046;2022-09-17T17:50:14;9.10;99.90
5796;DHT22;2924;51.458;7.046;2022-09-17T17:52:40;9.00;99.90
5796;DHT22;2924;51.458;7.046;2022-09-17T17:55:09;8.90;99.90
5796;DHT22;2924;51.458;7.046;2022-09-17T17:57:34;8.90;99.90
5796;DHT22;2924;51.458;7.046;2022-09-17T18:00:01;8.90;99.90
5796;DHT22;2924;51.458;7.046;2022-09-17T18:02:27;8.90;99.90
5796;DHT22;2924;51.458;7.046;2022-09-17T18:04:53;9.00;99.90
5796;DHT22;2924;51.458;7.046;2022-09-17T18:07:18;9.10;99.90
5796;DHT22;2924;51.458;7.046;2022-09-17T18:09:44;9.20;99.90
5796;DHT22;2924;51.458;7.046;2022-09-17T18:12:10;9.30;99.90
5796;DHT22;2924;51.458;7.046;2022-09-17T18:14:36;9.40;99.90
5796;DHT22;2924;51.458;7.046;2022-09-17T18:17:01;9.50;99.90
5796;DHT22;2924;51.458;7.046;2022-09-17T18:19:27;9.50;99.90
5796;DHT22;2924;51.458;7.046;2022-09-17T18:21:53;9.50;99.90
5796;DHT22;2924;51.458;7.046;2022-09-17T18:24:19;9.40;99.90
5796;DHT22;2924;51.458;7.046;2022-09-17T18:26:44;9.50;99.90
5796;DHT22;2924;51.458;7.046;2022-09-17T18:29:10;9.50;99.90
5796;DHT22;2924;51.458;7.046;2022-09-17T18:31:36;9.50;99.90
5796;DHT22;2924;51.458;7.046;2022-09-17T18:34:11;9.50;99.90
5796;DHT22;2924;51.458;7.046;2022-09-17T18:36:38;9.50;99.90
5796;DHT22;2924;51.458;7.046;2022-09-17T18:39:05;9.40;99.90
5796;DHT22;2924;51.458;7.046;2022-09-17T18:41:34;9.40;99.90
5796;DHT22;2924;51.458;7.046;2022-09-17T18:44:05;9.40;99.90
5796;DHT22;2924;51.458;7.046;2022-09-17T18:46:31;9.50;99.90
5796;DHT22;2924;51.458;7.046;2022-09-17T18:48:58;9.60;99.90
5796;DHT22;2924;51.458;7.046;2022-09-17T18:51:24;9.70;99.90
5796;DHT22;2924;51.458;7.046;2022-09-17T18:53:51;9.80;99.90
5796;DHT22;2924;51.458;7.046;2022-09-17T18:56:28;9.90;99.90
5796;DHT22;2924;51.458;7.046;2022-09-17T18:58:55;9.90;99.90
5796;DHT22;2924;51.458;7.046;2022-09-17T19:01:23;10.00;99.90
5796;DHT22;2924;51.458;7.046;2022-09-17T19:03:49;10.10;99.90
5796;DHT22;2924;51.458;7.046;2022-09-17T19:06:15;10.20;99.90
5796;DHT22;2924;51.458;7.046;2022-09-17T19:08:42;10.20;99.90
5796;DHT22;2924;51.458;7.046;2022-09-17T19:11:08;10.30;99.90
5796;DHT22;2924;51.458;7.046;2022-09-17T19:13:36;10.30;99.90
5796;DHT22;2924;51.458;7.046;2022-09-17T19:16:03;10.40;99.90
5796;DHT22;2924;51.458;7.046;2022-09-17T19:18:30;10.50;99.90
5796;DHT22;2924;51.458;7.046;2022-09-17T19:21:01;10.50;99.90
5796;DHT22;2924;51.458;7.046;2022-09-17T19:23:28;10.60;99.90
5796;DHT22;2924;51.458;7.046;2022-09-17T19:25:55;10.70;99.90
5796;DHT22;2924;51.458;7.046;2022-09-17T19:28:21;10.70;99.90
5796;DHT22;2924;51.458;7.046;2022-09-17T19:30:48;10.60;99.90
5796;DHT22;2924;51.458;7.046;2022-09-17T19:33:14;10.50;99.90
5796;DHT22;2924;51.458;7.046;2022-09-17T19:35:39;10.40;99.90
5796;DHT22;2924;51.458;7.046;2022-09-17T19:38:05;10.30;99.90
5796;DHT22;2924;51.458;7.046;2022-09-17T19:40:31;10.20;99.90
5796;DHT22;2924;51.458;7.046;2022-09-17T19:42:57;10.00;99.90
5796;DHT22;2924;51.458;7.046;2022-09-17T19:45:24;9.90;99.90
5796;DHT22;2924;51.458;7.046;2022-09-17T19:47:50;9.80;99.90
5796;DHT22;2924;51.458;7.046;2022-09-17T19:50:18;9.80;99.90
5796;DHT22;2924;51.458;7.046;2022-09-17T19:52:44;9.80;99.90
5796;DHT22;2924;51.458;7.046;2022-09-17T19:55:10;9.70;99.90
5796;DHT22;2924;51.458;7.046;2022-09-17T19:57:37;9.70;99.90
5796;DHT22;2924;51.458;7.046;2022-09-17T20:00:07;9.70;99.90